Time;durP1;ratioP1;P1;durP2;ratioP2;P2;SDS_P1;SDS_P2;PMS_P1;PMS_P2;Temp;Humidity;BMP_temperature;BMP_pressure;BME280_temperature;BME280_humidity;BME280_pressure;Samples;Min_cycle;Max_cycle;Signal;HPM_P1;HPM_P2
2021/11/26 00:02:22;;;;;;;94.03;33.80;;;;;;;;;;4985433;28;20022;-74
2021/11/26 00:04:48;;;;;;;89.32;29.15;;;;;;;;;;4974168;28;20697;-71
2021/11/26 00:07:14;;;;;;;81.80;29.73;;;;;;;;;;4977504;28;20030;-70
2021/11/26 00:09:39;;;;;;;68.57;25.23;;;;;;;;;;4979333;28;20018;-74
2021/11/26 00:12:05;;;;;;;42.20;14.40;;;;;;;;;;4982014;28;20064;-70
2021/11/26 00:14:34;;;;;;;78.82;27.52;;;;;;;;;;4976067;28;20500;-70
2021/11/26 00:17:02;;;;;;;84.88;26.27;;;;;;;;;;4980747;28;20052;-70
2021/11/26 00:19:27;;;;;;;94.03;27.73;;;;;;;;;;4982021;28;20023;-70
2021/11/26 00:21:53;;;;;;;78.10;28.55;;;;;;;;;;4980380;28;20410;-71
2021/11/26 00:24:19;;;;;;;72.95;24.75;;;;;;;;;;4974139;28;20054;-73
2021/11/26 00:26:45;;;;;;;72.00;23.80;;;;;;;;;;4976827;28;20034;-70
2021/11/26 00:29:10;;;;;;;74.75;23.75;;;;;;;;;;4972288;28;20388;-71
2021/11/26 00:31:35;;;;;;;88.95;28.58;;;;;;;;;;4983231;28;20041;-70
2021/11/26 00:34:01;;;;;;;69.22;25.38;;;;;;;;;;4975832;28;20023;-70
2021/11/26 00:36:26;;;;;;;68.45;24.50;;;;;;;;;;4991402;28;20049;-71
2021/11/26 00:38:51;;;;;;;78.80;26.65;;;;;;;;;;4991175;28;20026;-70
2021/11/26 00:41:17;;;;;;;75.15;25.27;;;;;;;;;;4978531;28;20494;-70
2021/11/26 00:43:44;;;;;;;68.15;24.02;;;;;;;;;;4983580;28;20044;-70
2021/11/26 00:46:09;;;;;;;71.72;20.80;;;;;;;;;;4975044;28;20395;-70
2021/11/26 00:48:34;;;;;;;72.13;25.98;;;;;;;;;;4972300;28;20026;-75
2021/11/26 00:51:00;;;;;;;73.28;22.95;;;;;;;;;;4972014;28;20118;-71
2021/11/26 00:53:25;;;;;;;67.40;25.33;;;;;;;;;;4981867;28;20479;-73
2021/11/26 00:55:50;;;;;;;72.43;23.63;;;;;;;;;;4977160;28;20027;-70
2021/11/26 00:58:16;;;;;;;72.93;24.13;;;;;;;;;;4986300;28;20454;-71
2021/11/26 01:00:41;;;;;;;57.13;21.52;;;;;;;;;;4972419;28;20019;-71
2021/11/26 01:03:06;;;;;;;72.13;22.70;;;;;;;;;;4980995;28;20018;-70
2021/11/26 01:05:32;;;;;;;68.57;23.60;;;;;;;;;;4980686;28;20015;-73
2021/11/26 01:07:57;;;;;;;81.28;21.85;;;;;;;;;;4977868;28;20022;-73
2021/11/26 01:10:23;;;;;;;66.13;19.95;;;;;;;;;;4975318;28;20455;-72
2021/11/26 01:12:49;;;;;;;56.30;17.20;;;;;;;;;;4989294;28;20011;-73
2021/11/26 01:15:16;;;;;;;65.53;20.33;;;;;;;;;;4992161;28;20084;-70
2021/11/26 01:17:42;;;;;;;63.58;20.17;;;;;;;;;;4992647;28;20387;-70
2021/11/26 01:20:09;;;;;;;75.78;19.40;;;;;;;;;;4985312;28;20041;-74
2021/11/26 01:22:34;;;;;;;68.32;21.55;;;;;;;;;;4976497;28;20380;-70
2021/11/26 01:25:00;;;;;;;78.43;24.30;;;;;;;;;;4992955;28;20037;-75
2021/11/26 01:27:25;;;;;;;64.55;21.60;;;;;;;;;;4985603;28;20096;-70
2021/11/26 01:29:50;;;;;;;80.15;20.05;;;;;;;;;;4976562;28;20103;-70
2021/11/26 01:32:15;;;;;;;59.07;20.83;;;;;;;;;;4983304;28;20041;-72
2021/11/26 01:34:41;;;;;;;79.80;23.50;;;;;;;;;;4995793;28;20277;-72
2021/11/26 01:37:06;;;;;;;68.50;19.75;;;;;;;;;;4993908;28;20022;-72
2021/11/26 01:39:31;;;;;;;70.65;21.02;;;;;;;;;;4994021;28;20021;-71
2021/11/26 01:41:56;;;;;;;72.40;22.75;;;;;;;;;;4988516;28;20089;-70
2021/11/26 01:44:21;;;;;;;78.55;23.55;;;;;;;;;;4977931;28;20036;-71
2021/11/26 01:46:47;;;;;;;70.20;23.35;;;;;;;;;;4995329;28;20113;-71
2021/11/26 01:49:12;;;;;;;66.90;20.75;;;;;;;;;;4993831;28;20065;-71
2021/11/26 01:51:38;;;;;;;78.05;23.77;;;;;;;;;;4985700;28;20034;-71
2021/11/26 01:54:04;;;;;;;76.93;23.45;;;;;;;;;;4992568;28;20058;-71
2021/11/26 01:56:29;;;;;;;38.50;14.35;;;;;;;;;;4978735;28;20531;-71
2021/11/26 01:58:55;;;;;;;41.75;12.25;;;;;;;;;;4977197;28;20093;-71
2021/11/26 02:01:20;;;;;;;40.90;12.40;;;;;;;;;;4976871;28;20018;-71
2021/11/26 02:03:46;;;;;;;56.15;18.42;;;;;;;;;;4975172;28;20037;-71
2021/11/26 02:06:11;;;;;;;50.38;15.70;;;;;;;;;;4993324;28;20010;-69
2021/11/26 02:08:36;;;;;;;68.90;23.38;;;;;;;;;;4992829;28;20030;-71
2021/11/26 02:11:02;;;;;;;67.35;20.75;;;;;;;;;;4980454;28;20018;-71
2021/11/26 02:13:28;;;;;;;64.13;20.08;;;;;;;;;;4990116;28;20034;-71
2021/11/26 02:15:54;;;;;;;72.43;22.00;;;;;;;;;;4986189;28;20081;-71
2021/11/26 02:18:19;;;;;;;76.60;24.63;;;;;;;;;;4988707;28;20026;-71
2021/11/26 02:20:45;;;;;;;69.65;18.67;;;;;;;;;;4993295;28;20014;-71
2021/11/26 02:23:10;;;;;;;76.63;24.52;;;;;;;;;;4986113;28;20025;-71
2021/11/26 02:25:36;;;;;;;77.15;24.67;;;;;;;;;;4976655;28;20042;-70
2021/11/26 02:28:03;;;;;;;73.75;23.92;;;;;;;;;;4975484;28;20019;-71
2021/11/26 02:30:28;;;;;;;64.15;21.52;;;;;;;;;;4986281;28;20121;-70
2021/11/26 02:33:00;;;;;;;79.03;23.08;;;;;;;;;;4982535;28;20117;-71
2021/11/26 02:35:27;;;;;;;61.67;19.40;;;;;;;;;;4992886;28;20037;-71
2021/11/26 02:37:52;;;;;;;66.97;21.55;;;;;;;;;;4983912;28;20488;-71
2021/11/26 02:40:18;;;;;;;84.65;24.20;;;;;;;;;;4974426;28;20048;-71
2021/11/26 02:42:44;;;;;;;68.68;23.77;;;;;;;;;;4993374;28;20019;-71
2021/11/26 02:45:10;;;;;;;81.00;24.27;;;;;;;;;;4980475;28;20440;-71
2021/11/26 02:47:36;;;;;;;78.30;24.10;;;;;;;;;;4975913;28;20035;-69
2021/11/26 02:50:04;;;;;;;68.78;22.23;;;;;;;;;;4986766;28;20026;-71
2021/11/26 02:52:29;;;;;;;69.07;20.45;;;;;;;;;;4987315;28;20030;-71
2021/11/26 02:54:55;;;;;;;56.15;17.95;;;;;;;;;;4991454;28;20031;-68
2021/11/26 02:57:20;;;;;;;62.40;20.83;;;;;;;;;;4987776;28;20089;-71
2021/11/26 02:59:45;;;;;;;62.88;20.83;;;;;;;;;;4991607;28;20256;-71
2021/11/26 03:02:10;;;;;;;69.82;18.75;;;;;;;;;;4982135;28;20030;-70
2021/11/26 03:04:36;;;;;;;54.25;18.27;;;;;;;;;;4989942;28;20030;-70
2021/11/26 03:07:02;;;;;;;59.83;21.40;;;;;;;;;;4974933;28;20490;-70
2021/11/26 03:09:27;;;;;;;66.78;23.05;;;;;;;;;;4988321;28;20530;-70
2021/11/26 03:11:52;;;;;;;51.03;14.00;;;;;;;;;;4976151;28;20031;-70
2021/11/26 03:14:17;;;;;;;66.70;21.60;;;;;;;;;;4973609;28;20046;-71
2021/11/26 03:16:43;;;;;;;70.90;19.65;;;;;;;;;;4991041;28;20359;-71
2021/11/26 03:19:08;;;;;;;68.43;21.70;;;;;;;;;;4991388;28;20050;-71
2021/11/26 03:21:33;;;;;;;67.72;21.33;;;;;;;;;;4988290;28;20022;-71
2021/11/26 03:23:58;;;;;;;64.63;20.57;;;;;;;;;;4982213;28;20032;-71
2021/11/26 03:26:23;;;;;;;64.20;19.42;;;;;;;;;;4985947;28;20670;-70
2021/11/26 03:28:48;;;;;;;62.40;19.47;;;;;;;;;;4980285;28;20026;-71
2021/11/26 03:31:14;;;;;;;61.75;19.85;;;;;;;;;;4977100;28;20360;-70
2021/11/26 03:33:39;;;;;;;57.15;19.48;;;;;;;;;;4980291;28;20466;-71
2021/11/26 03:36:04;;;;;;;64.50;21.52;;;;;;;;;;4981973;28;20027;-70
2021/11/26 03:38:29;;;;;;;54.47;19.50;;;;;;;;;;4985739;28;20434;-71
2021/11/26 03:40:55;;;;;;;67.07;20.60;;;;;;;;;;4980110;28;20262;-71
2021/11/26 03:43:20;;;;;;;67.78;21.75;;;;;;;;;;4987004;28;20026;-71
2021/11/26 03:45:45;;;;;;;57.38;22.23;;;;;;;;;;4977705;28;20023;-71
2021/11/26 03:48:10;;;;;;;53.22;19.05;;;;;;;;;;4977538;28;20015;-71
2021/11/26 03:50:35;;;;;;;58.13;21.08;;;;;;;;;;4979815;28;20042;-71
2021/11/26 03:53:00;;;;;;;63.85;20.38;;;;;;;;;;4983861;28;20498;-70
2021/11/26 03:55:30;;;;;;;46.03;17.67;;;;;;;;;;4982879;28;20105;-71
2021/11/26 03:57:56;;;;;;;53.75;18.17;;;;;;;;;;4978612;28;20942;-70
2021/11/26 04:00:21;;;;;;;50.72;14.05;;;;;;;;;;4988820;28;20054;-71
2021/11/26 04:02:47;;;;;;;53.05;19.17;;;;;;;;;;4973803;28;20054;-71
2021/11/26 04:05:12;;;;;;;30.30;10.27;;;;;;;;;;4979714;28;20100;-70
2021/11/26 04:07:38;;;;;;;65.20;21.42;;;;;;;;;;4989544;28;20077;-71
2021/11/26 04:10:03;;;;;;;51.50;18.42;;;;;;;;;;4982107;28;20026;-69
2021/11/26 04:12:29;;;;;;;62.50;20.10;;;;;;;;;;4987373;28;20026;-71
2021/11/26 04:14:54;;;;;;;50.15;16.77;;;;;;;;;;4990581;28;20081;-70
2021/11/26 04:17:20;;;;;;;58.67;18.30;;;;;;;;;;4970635;28;20636;-71
2021/11/26 04:19:46;;;;;;;59.35;18.60;;;;;;;;;;4985357;28;20046;-70
2021/11/26 04:22:11;;;;;;;61.25;18.85;;;;;;;;;;4973856;28;20577;-71
2021/11/26 04:24:36;;;;;;;58.17;18.13;;;;;;;;;;4971564;28;20709;-71
2021/11/26 04:27:01;;;;;;;50.53;19.13;;;;;;;;;;4984556;28;20413;-71
2021/11/26 04:29:27;;;;;;;61.88;19.30;;;;;;;;;;4986557;28;20038;-70
2021/11/26 04:31:52;;;;;;;53.47;15.43;;;;;;;;;;4988495;28;20057;-71
2021/11/26 04:34:17;;;;;;;43.83;15.40;;;;;;;;;;4973628;28;20037;-71
2021/11/26 04:36:43;;;;;;;51.03;18.02;;;;;;;;;;4973563;28;20022;-71
2021/11/26 04:39:08;;;;;;;65.18;20.98;;;;;;;;;;4985612;28;20103;-71
2021/11/26 04:41:33;;;;;;;54.30;17.30;;;;;;;;;;4972528;28;20037;-70
2021/11/26 04:43:58;;;;;;;64.65;21.88;;;;;;;;;;4988340;28;20022;-71
2021/11/26 04:46:23;;;;;;;44.95;14.45;;;;;;;;;;4993849;28;20089;-71
2021/11/26 04:48:49;;;;;;;46.83;20.50;;;;;;;;;;4988867;28;20423;-69
2021/11/26 04:51:14;;;;;;;63.87;20.57;;;;;;;;;;4987604;28;20027;-71
2021/11/26 04:53:39;;;;;;;51.72;17.13;;;;;;;;;;4973341;28;20308;-70
2021/11/26 04:56:04;;;;;;;65.68;19.73;;;;;;;;;;4981329;28;20026;-71
2021/11/26 04:58:35;;;;;;;52.63;13.75;;;;;;;;;;4980477;28;20049;-71
2021/11/26 05:01:00;;;;;;;;;;;;;;;;;;4975348;28;20030;-71
2021/11/26 05:03:25;;;;;;;59.60;19.50;;;;;;;;;;4990092;28;19909;-70
2021/11/26 05:05:50;;;;;;;58.40;20.38;;;;;;;;;;4980818;28;20423;-71
2021/11/26 05:08:19;;;;;;;50.60;19.70;;;;;;;;;;4976519;28;20062;-71
2021/11/26 05:10:51;;;;;;;48.00;16.73;;;;;;;;;;4984154;28;20270;-71
2021/11/26 05:13:17;;;;;;;38.33;15.10;;;;;;;;;;4984757;28;20376;-71
2021/11/26 05:15:42;;;;;;;49.05;19.67;;;;;;;;;;4977788;28;20448;-71
2021/11/26 05:18:07;;;;;;;55.47;20.27;;;;;;;;;;4973444;28;20054;-71
2021/11/26 05:20:33;;;;;;;70.88;20.85;;;;;;;;;;4969998;28;20643;-71
2021/11/26 05:22:58;;;;;;;51.80;19.23;;;;;;;;;;4977858;28;20031;-71
2021/11/26 05:25:23;;;;;;;44.53;17.75;;;;;;;;;;4986622;28;20476;-69
2021/11/26 05:27:48;;;;;;;53.83;18.08;;;;;;;;;;4970606;28;20041;-71
2021/11/26 05:30:14;;;;;;;54.25;20.27;;;;;;;;;;4977708;28;20137;-71
2021/11/26 05:32:39;;;;;;;68.32;21.73;;;;;;;;;;4987239;28;20045;-71
2021/11/26 05:35:08;;;;;;;48.08;19.05;;;;;;;;;;4988310;28;20030;-70
2021/11/26 05:37:34;;;;;;;57.55;19.80;;;;;;;;;;4977744;28;20113;-71
2021/11/26 05:39:59;;;;;;;50.83;19.90;;;;;;;;;;4971476;28;20107;-68
2021/11/26 05:42:24;;;;;;;63.55;19.45;;;;;;;;;;4970534;28;20043;-71
2021/11/26 05:44:49;;;;;;;57.75;19.85;;;;;;;;;;4969887;28;20027;-71
2021/11/26 05:47:14;;;;;;;49.75;18.38;;;;;;;;;;4984196;28;20022;-70
2021/11/26 05:49:40;;;;;;;58.10;21.00;;;;;;;;;;4972929;28;20034;-71
2021/11/26 05:52:05;;;;;;;48.10;18.17;;;;;;;;;;4985540;28;20858;-69
2021/11/26 05:54:30;;;;;;;33.88;12.60;;;;;;;;;;4983519;28;20034;-71
2021/11/26 05:56:55;;;;;;;54.25;18.85;;;;;;;;;;4988889;28;20030;-71
2021/11/26 05:59:21;;;;;;;51.08;22.05;;;;;;;;;;4973767;28;20546;-71
2021/11/26 06:01:46;;;;;;;48.30;19.25;;;;;;;;;;4975624;28;20089;-71
2021/11/26 06:04:11;;;;;;;49.17;19.13;;;;;;;;;;4974527;28;20114;-71
2021/11/26 06:06:36;;;;;;;50.10;20.03;;;;;;;;;;4973547;28;20324;-71
2021/11/26 06:09:02;;;;;;;52.42;20.23;;;;;;;;;;4975510;28;20674;-70
2021/11/26 06:11:27;;;;;;;47.85;19.17;;;;;;;;;;4989891;28;20038;-71
2021/11/26 06:13:53;;;;;;;59.10;17.38;;;;;;;;;;4975044;28;20070;-70
2021/11/26 06:16:18;;;;;;;39.97;16.02;;;;;;;;;;4991124;28;20027;-70
2021/11/26 06:18:43;;;;;;;58.05;20.00;;;;;;;;;;4976503;28;20531;-71
2021/11/26 06:21:08;;;;;;;43.53;18.97;;;;;;;;;;4982027;28;20456;-71
2021/11/26 06:23:33;;;;;;;48.42;19.23;;;;;;;;;;4987277;28;20347;-71
2021/11/26 06:25:58;;;;;;;41.23;19.67;;;;;;;;;;4978622;28;20057;-71
2021/11/26 06:28:24;;;;;;;58.25;20.25;;;;;;;;;;4976132;28;20277;-71
2021/11/26 06:30:49;;;;;;;34.03;13.48;;;;;;;;;;4983179;28;20041;-71
2021/11/26 06:33:14;;;;;;;47.83;20.10;;;;;;;;;;5017585;23;20042;-67
2021/11/26 06:35:39;;;;;;;53.20;20.33;;;;;;;;;;5007663;28;20509;-68
2021/11/26 06:38:04;;;;;;;40.22;16.55;;;;;;;;;;5009041;28;20045;-68
2021/11/26 06:40:30;;;;;;;53.80;19.65;;;;;;;;;;5012648;28;20034;-67
2021/11/26 06:42:55;;;;;;;51.38;20.08;;;;;;;;;;5012938;28;20018;-68
2021/11/26 06:45:20;;;;;;;43.72;15.48;;;;;;;;;;5005436;28;20030;-68
2021/11/26 06:47:47;;;;;;;46.03;16.38;;;;;;;;;;5004866;28;20029;-67
2021/11/26 06:50:12;;;;;;;37.88;16.20;;;;;;;;;;5000061;28;20131;-67
2021/11/26 06:52:37;;;;;;;27.83;11.57;;;;;;;;;;5012949;28;20497;-68
2021/11/26 06:55:03;;;;;;;37.47;15.38;;;;;;;;;;5011009;28;20056;-67
2021/11/26 06:57:29;;;;;;;37.30;16.20;;;;;;;;;;5014670;28;20425;-67
2021/11/26 06:59:54;;;;;;;46.70;16.50;;;;;;;;;;5011061;28;20022;-67
2021/11/26 07:02:20;;;;;;;39.22;17.00;;;;;;;;;;5007526;28;20025;-67
2021/11/26 07:04:46;;;;;;;67.22;24.27;;;;;;;;;;5010828;28;20521;-67
2021/11/26 07:07:11;;;;;;;59.47;24.38;;;;;;;;;;5012820;28;20091;-67
2021/11/26 07:09:37;;;;;;;59.78;24.38;;;;;;;;;;5012142;28;20396;-68
2021/11/26 07:12:03;;;;;;;42.60;18.25;;;;;;;;;;5010969;28;20048;-67
2021/11/26 07:14:28;;;;;;;23.50;10.90;;;;;;;;;;5012595;28;20026;-67
2021/11/26 07:16:53;;;;;;;32.53;14.43;;;;;;;;;;5004081;28;20053;-68
2021/11/26 07:19:18;;;;;;;34.97;15.38;;;;;;;;;;4992951;28;20015;-67
2021/11/26 07:21:44;;;;;;;20.88;9.55;;;;;;;;;;4999100;28;20343;-67
2021/11/26 07:24:09;;;;;;;19.77;8.65;;;;;;;;;;5009838;28;20034;-67
2021/11/26 07:26:34;;;;;;;29.45;10.45;;;;;;;;;;5011941;28;20029;-67
2021/11/26 07:29:00;;;;;;;29.63;9.70;;;;;;;;;;5010149;28;20148;-66
2021/11/26 07:31:25;;;;;;;24.48;11.50;;;;;;;;;;5010275;28;20741;-67
2021/11/26 07:33:50;;;;;;;24.17;9.65;;;;;;;;;;5011141;28;20037;-67
2021/11/26 07:36:15;;;;;;;25.50;10.75;;;;;;;;;;5012255;28;20018;-67
2021/11/26 07:38:40;;;;;;;25.58;9.80;;;;;;;;;;4997526;28;20492;-65
2021/11/26 07:41:06;;;;;;;20.70;9.45;;;;;;;;;;5011417;28;20533;-67
2021/11/26 07:43:31;;;;;;;24.58;9.65;;;;;;;;;;5000948;28;20100;-67
2021/11/26 07:45:57;;;;;;;5.28;3.03;;;;;;;;;;5001520;28;20022;-67
2021/11/26 07:48:22;;;;;;;20.50;7.75;;;;;;;;;;5008822;28;20018;-67
2021/11/26 07:50:48;;;;;;;17.95;7.63;;;;;;;;;;5008303;28;20022;-67
2021/11/26 07:53:13;;;;;;;11.52;5.90;;;;;;;;;;5008577;28;20028;-66
2021/11/26 07:55:38;;;;;;;16.58;6.75;;;;;;;;;;5016248;28;20583;-67
2021/11/26 07:58:05;;;;;;;14.32;5.25;;;;;;;;;;5014628;28;20054;-67
2021/11/26 08:00:30;;;;;;;8.25;4.03;;;;;;;;;;5010671;28;20068;-66
2021/11/26 08:02:57;;;;;;;14.90;4.72;;;;;;;;;;5011331;28;20018;-67
2021/11/26 08:05:22;;;;;;;12.60;4.07;;;;;;;;;;5019264;28;20018;-67
2021/11/26 08:07:47;;;;;;;19.23;5.88;;;;;;;;;;5013560;28;20029;-67
2021/11/26 08:10:13;;;;;;;11.82;4.15;;;;;;;;;;5012011;28;20366;-67
2021/11/26 08:12:39;;;;;;;10.60;4.38;;;;;;;;;;5015155;28;20038;-67
2021/11/26 08:15:08;;;;;;;13.85;5.47;;;;;;;;;;5005573;28;20026;-67
2021/11/26 08:17:33;;;;;;;11.00;3.83;;;;;;;;;;5010689;28;20556;-67
2021/11/26 08:19:59;;;;;;;14.85;4.85;;;;;;;;;;4999054;28;20023;-67
2021/11/26 08:22:24;;;;;;;17.90;4.03;;;;;;;;;;4991795;28;20483;-65
2021/11/26 08:24:49;;;;;;;17.80;5.13;;;;;;;;;;4992173;28;20021;-67
2021/11/26 08:27:14;;;;;;;10.05;4.28;;;;;;;;;;5001967;28;20021;-67
2021/11/26 08:29:40;;;;;;;13.57;4.80;;;;;;;;;;4993958;28;20640;-67
2021/11/26 08:32:05;;;;;;;9.38;3.33;;;;;;;;;;4999121;28;20032;-66
2021/11/26 08:34:30;;;;;;;12.05;4.70;;;;;;;;;;5011259;28;20060;-67
2021/11/26 08:36:55;;;;;;;11.35;5.57;;;;;;;;;;4993463;28;20026;-67
2021/11/26 08:39:21;;;;;;;15.57;5.95;;;;;;;;;;4991548;28;20014;-66
2021/11/26 08:41:46;;;;;;;11.85;5.22;;;;;;;;;;4991184;28;20026;-66
2021/11/26 08:44:11;;;;;;;11.63;6.22;;;;;;;;;;4991469;28;20019;-66
2021/11/26 08:46:36;;;;;;;11.57;5.45;;;;;;;;;;5003073;28;20032;-66
2021/11/26 08:49:02;;;;;;;11.07;4.72;;;;;;;;;;5010900;28;20022;-66
2021/11/26 08:51:32;;;;;;;9.07;4.97;;;;;;;;;;4991388;28;20093;-66
2021/11/26 08:53:57;;;;;;;19.73;6.20;;;;;;;;;;4991397;28;20478;-66
2021/11/26 08:56:24;;;;;;;11.95;5.95;;;;;;;;;;4991248;28;20113;-67
2021/11/26 08:58:49;;;;;;;6.50;2.75;;;;;;;;;;4991372;28;20018;-67
2021/11/26 09:01:15;;;;;;;10.27;4.57;;;;;;;;;;4993491;28;20422;-66
2021/11/26 09:03:41;;;;;;;16.45;6.03;;;;;;;;;;4992056;28;20071;-66
2021/11/26 09:06:06;;;;;;;19.70;8.10;;;;;;;;;;4991361;28;20479;-66
2021/11/26 09:08:31;;;;;;;9.60;5.28;;;;;;;;;;4991420;28;20098;-66
2021/11/26 09:10:56;;;;;;;22.27;9.10;;;;;;;;;;4991160;28;20025;-66
2021/11/26 09:13:22;;;;;;;12.13;5.10;;;;;;;;;;4991090;28;20023;-66
2021/11/26 09:15:47;;;;;;;14.70;5.53;;;;;;;;;;4991613;28;20057;-66
2021/11/26 09:18:13;;;;;;;25.38;9.25;;;;;;;;;;5002384;28;20018;-66
2021/11/26 09:20:38;;;;;;;30.02;9.88;;;;;;;;;;5010015;28;20029;-66
2021/11/26 09:23:05;;;;;;;22.52;9.98;;;;;;;;;;5010643;28;20037;-66
2021/11/26 09:25:31;;;;;;;30.83;10.25;;;;;;;;;;5010668;28;20109;-66
2021/11/26 09:27:56;;;;;;;32.50;10.48;;;;;;;;;;5010755;28;20017;-67
2021/11/26 09:30:23;;;;;;;33.92;11.88;;;;;;;;;;5009881;28;20520;-67
2021/11/26 09:32:48;;;;;;;17.27;7.88;;;;;;;;;;5010530;28;20041;-67
2021/11/26 09:35:14;;;;;;;14.48;7.18;;;;;;;;;;5008758;28;20335;-67
2021/11/26 09:37:39;;;;;;;23.17;6.60;;;;;;;;;;5010318;28;20129;-64
2021/11/26 09:40:06;;;;;;;26.00;9.23;;;;;;;;;;5010378;28;20028;-66
2021/11/26 09:42:32;;;;;;;22.73;9.65;;;;;;;;;;5010428;28;20021;-66
2021/11/26 09:44:59;;;;;;;26.77;10.48;;;;;;;;;;5010327;28;20130;-65
2021/11/26 09:47:25;;;;;;;22.13;6.88;;;;;;;;;;5013888;28;20064;-65
2021/11/26 09:49:50;;;;;;;23.60;8.63;;;;;;;;;;5012066;28;20030;-66
2021/11/26 09:52:15;;;;;;;33.85;7.97;;;;;;;;;;4999821;28;20025;-66
2021/11/26 09:54:42;;;;;;;41.58;11.70;;;;;;;;;;5014084;28;20032;-66
2021/11/26 09:57:08;;;;;;;26.67;8.77;;;;;;;;;;5014019;28;20500;-64
2021/11/26 09:59:33;;;;;;;32.72;11.15;;;;;;;;;;5005145;28;20034;-67
2021/11/26 10:02:06;;;;;;;37.20;11.00;;;;;;;;;;5011860;28;20026;-66
2021/11/26 10:04:31;;;;;;;28.48;10.93;;;;;;;;;;5012745;28;20381;-66
2021/11/26 10:07:01;;;;;;;17.33;4.97;;;;;;;;;;5012784;28;20017;-65
2021/11/26 10:09:26;;;;;;;28.58;10.55;;;;;;;;;;5007327;28;20036;-67
2021/11/26 10:11:53;;;;;;;30.48;10.02;;;;;;;;;;5013565;28;20025;-67
2021/11/26 10:14:23;;;;;;;15.35;6.13;;;;;;;;;;5007585;28;20409;-67
2021/11/26 10:16:53;;;;;;;33.10;10.40;;;;;;;;;;5000212;28;20027;-66
2021/11/26 10:19:29;;;;;;;5.70;3.13;;;;;;;;;;5006677;28;20069;-65
2021/11/26 10:21:54;;;;;;;29.73;10.90;;;;;;;;;;5008682;28;20056;-67
2021/11/26 10:24:19;;;;;;;31.77;11.02;;;;;;;;;;5015046;28;20444;-65
2021/11/26 10:26:49;;;;;;;37.75;11.18;;;;;;;;;;5008180;28;20030;-64
2021/11/26 10:29:14;;;;;;;34.30;10.98;;;;;;;;;;5018770;28;20046;-65
2021/11/26 10:31:40;;;;;;;28.40;9.25;;;;;;;;;;5013261;28;20034;-67
2021/11/26 10:34:06;;;;;;;29.95;7.20;;;;;;;;;;4995614;28;20506;-67
2021/11/26 10:36:48;;;;;;;32.22;8.75;;;;;;;;;;4996588;28;20092;-66
2021/11/26 10:39:17;;;;;;;21.58;4.65;;;;;;;;;;5007172;28;20030;-66
2021/11/26 10:41:43;;;;;;;26.98;7.95;;;;;;;;;;5011960;28;20018;-66
2021/11/26 10:44:09;;;;;;;22.50;6.78;;;;;;;;;;5013847;28;20172;-66
2021/11/26 10:59:47;;;;;;;30.50;6.10;;;;;;;;;;5012992;28;20105;-67
2021/11/26 11:02:28;;;;;;;9.45;2.80;;;;;;;;;;4999364;28;20022;-67
2021/11/26 11:04:53;;;;;;;12.18;4.28;;;;;;;;;;5006357;28;20018;-66
2021/11/26 11:07:18;;;;;;;6.53;2.83;;;;;;;;;;5003615;28;20042;-65
2021/11/26 11:09:45;;;;;;;21.80;5.78;;;;;;;;;;5011428;28;20025;-66
2021/11/26 11:12:11;;;;;;;17.50;6.75;;;;;;;;;;5010869;28;20061;-66
2021/11/26 11:14:36;;;;;;;29.15;7.28;;;;;;;;;;5012000;28;20057;-66
2021/11/26 11:17:02;;;;;;;26.80;6.00;;;;;;;;;;5012261;28;20044;-66
2021/11/26 11:19:27;;;;;;;13.52;4.45;;;;;;;;;;5007249;28;20035;-66
2021/11/26 11:21:54;;;;;;;11.80;3.55;;;;;;;;;;4992529;28;20044;-65
2021/11/26 11:24:19;;;;;;;10.85;3.53;;;;;;;;;;5008135;28;20091;-65
2021/11/26 11:26:46;;;;;;;13.93;5.65;;;;;;;;;;5010802;28;20498;-65
2021/11/26 11:29:12;;;;;;;12.52;4.65;;;;;;;;;;4999238;28;20386;-66
2021/11/26 11:31:39;;;;;;;14.18;4.10;;;;;;;;;;5013182;28;20371;-66
2021/11/26 11:34:05;;;;;;;12.18;2.67;;;;;;;;;;5011583;28;20029;-65
2021/11/26 11:36:33;;;;;;;20.67;3.57;;;;;;;;;;5003602;28;20040;-66
2021/11/26 11:38:58;;;;;;;10.32;2.55;;;;;;;;;;5031817;28;20241;-66
2021/11/26 11:41:24;;;;;;;14.50;2.45;;;;;;;;;;5020203;28;20025;-66
2021/11/26 11:43:49;;;;;;;16.58;3.42;;;;;;;;;;5012267;28;20018;-65
2021/11/26 11:46:15;;;;;;;8.60;2.55;;;;;;;;;;5007179;28;20026;-66
2021/11/26 11:48:45;;;;;;;15.98;2.00;;;;;;;;;;5020252;28;20343;-66
2021/11/26 11:51:20;;;;;;;19.33;4.05;;;;;;;;;;5030377;28;20021;-65
2021/11/26 11:53:46;;;;;;;9.02;2.17;;;;;;;;;;5008011;28;20045;-65
2021/11/26 11:56:15;;;;;;;13.25;2.78;;;;;;;;;;5010487;28;20414;-66
2021/11/26 11:58:48;;;;;;;3.50;1.02;;;;;;;;;;5011078;28;20021;-65
2021/11/26 12:01:19;;;;;;;11.80;2.40;;;;;;;;;;5006804;28;20022;-65
2021/11/26 12:03:45;;;;;;;5.53;2.33;;;;;;;;;;5024051;28;20022;-66
2021/11/26 12:06:10;;;;;;;15.65;2.53;;;;;;;;;;5006636;28;20030;-65
2021/11/26 12:08:45;;;;;;;9.65;3.05;;;;;;;;;;5004959;28;20663;-65
2021/11/26 12:11:21;;;;;;;4.72;1.55;;;;;;;;;;5010117;28;20036;-66
2021/11/26 12:13:57;;;;;;;10.20;1.90;;;;;;;;;;4998492;28;20161;-66
2021/11/26 12:16:24;;;;;;;11.30;2.75;;;;;;;;;;5004629;28;20108;-66
2021/11/26 12:18:50;;;;;;;3.60;1.35;;;;;;;;;;5010746;28;20018;-65
2021/11/26 12:21:18;;;;;;;10.65;1.52;;;;;;;;;;5003157;28;20018;-65
2021/11/26 12:24:03;;;;;;;3.78;1.25;;;;;;;;;;5007828;28;20106;-66
2021/11/26 12:26:40;;;;;;;9.88;2.00;;;;;;;;;;5005996;28;20109;-65
2021/11/26 12:29:10;;;;;;;7.68;2.03;;;;;;;;;;5009258;28;20504;-67
2021/11/26 12:31:36;;;;;;;13.20;1.30;;;;;;;;;;5005691;28;20030;-64
2021/11/26 12:34:06;;;;;;;6.65;1.38;;;;;;;;;;5010112;28;20034;-63
2021/11/26 12:36:35;;;;;;;14.82;2.42;;;;;;;;;;5009213;28;20482;-63
2021/11/26 12:39:03;;;;;;;9.13;2.00;;;;;;;;;;5010723;28;20030;-63
2021/11/26 12:41:28;;;;;;;3.67;1.27;;;;;;;;;;5009829;28;20014;-63
2021/11/26 12:43:53;;;;;;;4.03;1.40;;;;;;;;;;5007912;28;20037;-64
2021/11/26 12:46:20;;;;;;;11.25;2.05;;;;;;;;;;4999954;28;20552;-64
2021/11/26 12:49:14;;;;;;;11.70;2.55;;;;;;;;;;5009758;28;20021;-64
2021/11/26 12:51:40;;;;;;;3.00;1.20;;;;;;;;;;5006715;28;20052;-64
2021/11/26 12:54:06;;;;;;;3.88;2.08;;;;;;;;;;5010453;28;20073;-63
2021/11/26 12:56:33;;;;;;;7.80;1.85;;;;;;;;;;5010292;28;20025;-64
2021/11/26 12:58:58;;;;;;;6.82;1.35;;;;;;;;;;5009388;28;20076;-64
2021/11/26 13:01:23;;;;;;;8.85;2.17;;;;;;;;;;5004441;28;20443;-63
2021/11/26 13:03:48;;;;;;;3.80;1.40;;;;;;;;;;4995212;28;20025;-64
2021/11/26 13:06:19;;;;;;;10.55;1.55;;;;;;;;;;5010278;28;20013;-64
2021/11/26 13:08:45;;;;;;;10.57;0.90;;;;;;;;;;5010555;28;20097;-64
2021/11/26 13:11:10;;;;;;;14.60;2.35;;;;;;;;;;5009989;28;20113;-63
2021/11/26 13:13:38;;;;;;;11.23;1.55;;;;;;;;;;5007274;28;20030;-64
2021/11/26 13:16:05;;;;;;;2.72;1.40;;;;;;;;;;5013030;28;20097;-66
2021/11/26 13:18:31;;;;;;;4.78;1.77;;;;;;;;;;5010170;28;20029;-66
2021/11/26 13:20:58;;;;;;;11.00;1.90;;;;;;;;;;5011238;28;20018;-66
2021/11/26 13:23:25;;;;;;;10.85;1.90;;;;;;;;;;5014532;28;20022;-66
2021/11/26 13:25:51;;;;;;;5.70;1.55;;;;;;;;;;5012811;28;20029;-66
2021/11/26 13:28:28;;;;;;;6.95;1.65;;;;;;;;;;5006512;28;20105;-66
2021/11/26 13:30:54;;;;;;;7.10;1.92;;;;;;;;;;5003645;28;20018;-66
2021/11/26 13:33:28;;;;;;;3.33;1.70;;;;;;;;;;5003535;28;20041;-66
2021/11/26 13:35:59;;;;;;;10.65;3.08;;;;;;;;;;5013544;28;20261;-66
2021/11/26 13:38:28;;;;;;;11.60;3.15;;;;;;;;;;5014278;28;20026;-66
2021/11/26 13:40:55;;;;;;;19.38;3.13;;;;;;;;;;5012225;28;20022;-66
2021/11/26 13:43:30;;;;;;;5.38;1.33;;;;;;;;;;4999532;28;20430;-66
2021/11/26 13:45:59;;;;;;;12.15;1.98;;;;;;;;;;5007987;28;20105;-66
2021/11/26 13:48:24;;;;;;;10.00;1.60;;;;;;;;;;5012544;28;20065;-65
2021/11/26 13:50:50;;;;;;;4.85;1.58;;;;;;;;;;5013511;28;20026;-66
2021/11/26 13:53:15;;;;;;;7.22;2.10;;;;;;;;;;5013869;28;20022;-66
2021/11/26 13:55:40;;;;;;;1.55;0.77;;;;;;;;;;5011606;28;20017;-66
2021/11/26 13:58:10;;;;;;;3.90;1.52;;;;;;;;;;5013486;28;20056;-66
2021/11/26 14:00:35;;;;;;;;;;;;;;;;;;5001856;28;20371;-66
2021/11/26 14:03:01;;;;;;;5.07;1.77;;;;;;;;;;5012638;28;19920;-66
2021/11/26 14:05:33;;;;;;;3.90;1.40;;;;;;;;;;5013182;28;20026;-66
2021/11/26 14:08:00;;;;;;;7.18;1.23;;;;;;;;;;5013060;28;20268;-66
2021/11/26 14:10:25;;;;;;;5.78;1.63;;;;;;;;;;5007072;28;20026;-66
2021/11/26 14:12:57;;;;;;;2.22;1.15;;;;;;;;;;5026058;28;20048;-66
2021/11/26 14:15:23;;;;;;;1.45;0.95;;;;;;;;;;5028758;28;20049;-66
2021/11/26 14:17:48;;;;;;;6.50;1.90;;;;;;;;;;5013141;28;20026;-66
2021/11/26 14:20:13;;;;;;;7.30;1.52;;;;;;;;;;5012258;28;20363;-66
2021/11/26 14:22:41;;;;;;;12.00;3.10;;;;;;;;;;5016871;28;20428;-66
2021/11/26 14:25:07;;;;;;;7.93;2.00;;;;;;;;;;5021251;28;20359;-66
2021/11/26 14:27:37;;;;;;;9.43;3.33;;;;;;;;;;5013174;28;20018;-66
2021/11/26 14:30:05;;;;;;;9.77;2.03;;;;;;;;;;5009038;28;20026;-64
2021/11/26 14:32:31;;;;;;;9.25;2.40;;;;;;;;;;5008220;28;20034;-64
2021/11/26 14:35:08;;;;;;;7.05;2.45;;;;;;;;;;5009639;28;20117;-65